Time;durP1;ratioP1;P1;durP2;ratioP2;P2;SDS_P1;SDS_P2;PMS_P1;PMS_P2;Temp;Humidity;BMP_temperature;BMP_pressure;BME280_temperature;BME280_humidity;BME280_pressure;Samples;Min_cycle;Max_cycle;Signal;HPM_P1;HPM_P2
2022/04/23 00:00:50;;;;;;;9.53;6.80;;;;;;;9.04;99.91;98090.31;5061377;28;20690;-87
2022/04/23 00:03:17;;;;;;;11.37;6.93;;;;;;;10.72;99.72;98319.88;5060469;28;20174;-86
2022/04/23 00:05:43;;;;;;;11.20;6.90;;;;;;;8.20;98.87;97904.56;5040651;28;20260;-85
2022/04/23 00:08:09;;;;;;;12.77;8.63;;;;;;;7.97;100.00;97875.31;5041483;28;20243;-87
2022/04/23 00:10:35;;;;;;;12.57;8.07;;;;;;;10.44;100.00;98293.00;5040109;28;20241;-86
2022/04/23 00:13:02;;;;;;;15.00;10.17;;;;;;;9.10;100.00;98074.47;5028272;28;20177;-86
2022/04/23 00:15:29;;;;;;;11.30;8.43;;;;;;;9.45;100.00;98114.19;5019609;28;20193;-86
2022/04/23 00:17:54;;;;;;;10.30;6.87;;;;;;;10.65;100.00;98311.28;5020650;28;20158;-85
2022/04/23 00:20:21;;;;;;;12.17;7.47;;;;;;;10.78;100.00;98334.38;5021177;28;20173;-87
2022/04/23 00:22:47;;;;;;;16.17;8.40;;;;;;;10.36;100.00;98240.50;5019194;28;20240;-87
2022/04/23 00:25:13;;;;;;;16.47;11.23;;;;;;;10.79;99.86;98331.03;5037402;28;20177;-86
2022/04/23 00:27:38;;;;;;;26.13;13.97;;;;;;;7.10;99.27;97698.22;5037768;28;20279;-87
2022/04/23 00:30:04;;;;;;;35.03;16.30;;;;;;;9.10;100.00;98057.69;5019375;28;20170;-85
2022/04/23 00:32:30;;;;;;;17.67;10.17;;;;;;;10.08;100.00;98218.66;5019836;28;20213;-86
2022/04/23 00:34:55;;;;;;;20.37;10.80;;;;;;;10.83;100.00;98336.19;5019747;28;20201;-86
2022/04/23 00:37:20;;;;;;;14.60;8.17;;;;;;;9.05;100.00;98044.06;5037765;28;20606;-87
2022/04/23 00:39:46;;;;;;;10.17;6.83;;;;;;;9.86;100.00;98209.66;5038190;28;20202;-86
2022/04/23 00:42:12;;;;;;;14.93;7.80;;;;;;;10.42;100.00;98311.50;5023614;28;20253;-87
2022/04/23 00:44:38;;;;;;;12.30;7.40;;;;;;;8.19;100.00;97953.25;5038471;28;20242;-87
2022/04/23 00:47:04;;;;;;;16.67;7.80;;;;;;;9.19;100.00;98082.31;5036156;28;20182;-88
2022/04/23 00:49:30;;;;;;;12.43;8.57;;;;;;;8.48;100.00;98025.63;5018061;28;20320;-87
2022/04/23 00:51:55;;;;;;;13.00;8.80;;;;;;;10.33;100.00;98346.69;5034747;28;20229;-86
2022/04/23 00:54:22;;;;;;;12.47;8.63;;;;;;;9.36;100.00;98177.09;5035259;28;20170;-87
2022/04/23 00:56:48;;;;;;;11.97;8.23;;;;;;;8.63;100.00;98035.28;5018188;28;20224;-88
2022/04/23 00:59:14;;;;;;;15.27;8.50;;;;;;;9.27;100.00;98166.72;5018696;28;20598;-88
2022/04/23 01:01:41;;;;;;;12.30;7.70;;;;;;;6.01;100.00;97613.50;5017343;28;20177;-87
2022/04/23 01:04:07;;;;;;;13.60;8.23;;;;;;;8.54;100.00;98038.38;5018216;28;20166;-86
2022/04/23 01:06:35;;;;;;;14.57;8.00;;;;;;;10.24;100.00;98316.06;5017900;28;20181;-87
2022/04/23 01:09:08;;;;;;;20.13;9.23;;;;;;;9.55;100.00;98217.22;5035744;28;20253;-88
2022/04/23 01:11:36;;;;;;;12.70;8.27;;;;;;;8.68;100.00;98071.63;5035840;28;20166;-87
2022/04/23 01:14:02;;;;;;;15.63;9.43;;;;;;;10.31;100.00;98328.06;5017733;28;20170;-86
2022/04/23 01:16:28;;;;;;;15.10;9.30;;;;;;;9.89;100.00;98287.22;5037839;28;20575;-86
2022/04/23 01:18:53;;;;;;;16.13;9.27;;;;;;;9.57;100.00;98240.84;5018467;28;20173;-86
2022/04/23 01:21:19;;;;;;;15.40;9.20;;;;;;;6.49;100.00;97730.66;5034307;28;20169;-87
2022/04/23 01:23:46;;;;;;;17.33;9.17;;;;;;;9.95;100.00;98316.06;5056455;28;20601;-86
2022/04/23 01:26:14;;;;;;;18.13;10.93;;;;;;;7.18;100.00;97882.97;5057151;28;20164;-87
2022/04/23 01:28:40;;;;;;;16.17;9.60;;;;;;;7.32;100.00;97987.47;5057572;28;20347;-86
2022/04/23 01:31:06;;;;;;;18.60;9.87;;;;;;;7.15;100.00;98033.84;5057281;28;20617;-86
2022/04/23 01:33:35;;;;;;;16.90;10.23;;;;;;;6.12;100.00;97834.09;5057417;28;20169;-87
2022/04/23 01:36:02;;;;;;;15.87;10.47;;;;;;;7.51;100.00;98098.03;5055735;28;20165;-87
2022/04/23 01:38:28;;;;;;;19.30;11.20;;;;;;;7.73;100.00;98085.38;5056224;28;20165;-87
2022/04/23 01:40:54;;;;;;;19.97;11.10;;;;;;;6.86;100.00;97954.00;5038092;28;20173;-87
2022/04/23 01:43:20;;;;;;;16.93;11.03;;;;;;;5.83;100.00;97791.97;5039768;28;20268;-87
2022/04/23 01:45:46;;;;;;;18.70;11.50;;;;;;;6.69;100.00;97950.03;5018380;28;20194;-86
2022/04/23 01:48:11;;;;;;;19.60;11.53;;;;;;;5.95;100.00;97855.22;5036545;28;20205;-87
2022/04/23 01:50:37;;;;;;;19.43;11.37;;;;;;;8.52;100.00;98271.16;5035690;28;20214;-86
2022/04/23 01:53:03;;;;;;;20.97;11.57;;;;;;;9.09;100.00;98333.63;5017784;28;20560;-88
2022/04/23 01:55:29;;;;;;;19.53;12.20;;;;;;;7.17;100.00;98014.59;5017907;28;20178;-87
2022/04/23 01:57:55;;;;;;;19.67;11.33;;;;;;;6.90;100.00;97956.66;5033805;28;20154;-87
2022/04/23 02:00:20;;;;;;;17.97;11.30;;;;;;;7.13;100.00;98015.31;5015731;28;20162;-87
2022/04/23 02:02:46;;;;;;;15.83;10.37;;;;;;;5.34;100.00;97714.91;5016006;28;20219;-88
2022/04/23 02:05:12;;;;;;;17.57;10.23;;;;;;;8.97;100.00;98367.72;5026809;28;20177;-86
2022/04/23 02:07:44;;;;;;;14.87;10.30;;;;;;;8.96;100.00;98360.94;5053889;28;20185;-87
2022/04/23 02:10:12;;;;;;;20.07;10.97;;;;;;;6.90;100.00;98014.50;5036109;28;20165;-87
2022/04/23 02:12:38;;;;;;;19.03;11.17;;;;;;;7.54;100.00;98095.63;5037541;28;20252;-87
2022/04/23 02:15:15;;;;;;;17.13;11.00;;;;;;;6.87;100.00;97963.22;5038503;28;20161;-87
2022/04/23 02:17:42;;;;;;;17.73;10.63;;;;;;;6.17;100.00;97862.75;5056639;28;20153;-87
2022/04/23 02:20:10;;;;;;;18.07;10.97;;;;;;;9.13;100.00;98363.22;5039552;28;20161;-85
2022/04/23 02:22:36;;;;;;;19.33;12.07;;;;;;;6.42;100.00;97925.63;5056918;28;20266;-87
2022/04/23 02:25:05;;;;;;;22.17;13.13;;;;;;;6.15;100.00;97992.47;5055510;28;20197;-86
2022/04/23 02:27:42;;;;;;;21.07;12.40;;;;;;;6.64;100.00;98067.19;5037112;28;20177;-86
2022/04/23 02:30:08;;;;;;;22.57;12.17;;;;;;;7.84;100.00;98234.34;5055454;28;20180;-87
2022/04/23 02:32:33;;;;;;;19.67;12.03;;;;;;;6.72;100.00;98049.06;5037299;28;20165;-87
2022/04/23 02:34:59;;;;;;;27.57;15.77;;;;;;;6.14;100.00;97932.97;5055036;28;20192;-86
2022/04/23 02:37:31;;;;;;;24.87;15.50;;;;;;;6.65;100.00;98008.56;5055835;28;20232;-87
2022/04/23 02:39:56;;;;;;;20.30;12.90;;;;;;;7.78;100.00;98211.47;5055484;28;20158;-87
2022/04/23 02:42:22;;;;;;;20.63;13.00;;;;;;;5.48;100.00;97865.97;5055014;28;20585;-86
2022/04/23 02:44:48;;;;;;;21.00;12.57;;;;;;;5.13;100.00;97852.06;5055875;28;20162;-87
2022/04/23 02:47:13;;;;;;;22.07;13.90;;;;;;;5.19;100.00;97862.31;5023193;28;20190;-86
2022/04/23 02:49:39;;;;;;;21.63;13.20;;;;;;;4.71;100.00;97740.06;5033370;28;20601;-87
2022/04/23 02:52:04;;;;;;;22.73;13.00;;;;;;;7.81;100.00;98271.16;5032750;28;20305;-87
2022/04/23 02:54:30;;;;;;;21.13;12.47;;;;;;;6.79;100.00;98057.69;5033568;28;20617;-87
2022/04/23 02:56:55;;;;;;;20.63;12.53;;;;;;;7.35;100.00;98147.78;5015200;28;20177;-86
2022/04/23 02:59:21;;;;;;;24.03;13.33;;;;;;;6.79;100.00;98042.59;5015587;28;20166;-86
2022/04/23 03:01:47;;;;;;;25.33;14.80;;;;;;;8.00;100.00;98279.44;5038324;28;20570;-87
2022/04/23 03:04:12;;;;;;;25.40;13.57;;;;;;;5.59;100.00;97914.06;5049147;28;20676;-88
2022/04/23 03:06:38;;;;;;;21.67;12.83;;;;;;;6.91;100.00;98183.91;5047770;28;20658;-87
2022/04/23 03:09:03;;;;;;;24.20;14.33;;;;;;;5.68;100.00;97978.03;5018488;28;20272;-88
2022/04/23 03:11:32;;;;;;;25.53;14.40;;;;;;;6.04;100.00;98007.91;5019899;28;20171;-87
2022/04/23 03:13:58;;;;;;;25.63;14.07;;;;;;;5.70;100.00;97922.84;5037983;28;20241;-86
2022/04/23 03:16:26;;;;;;;24.13;14.87;;;;;;;8.74;100.00;98447.69;5038074;28;20637;-86
2022/04/23 03:18:52;;;;;;;28.57;15.47;;;;;;;8.54;100.00;98472.19;5019000;28;20319;-85
2022/04/23 03:21:17;;;;;;;26.37;15.47;;;;;;;6.59;100.00;98113.94;5018744;28;20162;-86
2022/04/23 03:23:43;;;;;;;27.63;15.67;;;;;;;6.39;100.00;98108.13;5037031;28;20556;-87
2022/04/23 03:26:08;;;;;;;27.83;15.33;;;;;;;6.53;100.00;98107.00;5036783;28;20273;-87
2022/04/23 03:28:35;;;;;;;25.43;14.70;;;;;;;5.30;100.00;97871.13;5044530;28;20201;-87
2022/04/23 03:31:00;;;;;;;23.63;14.00;;;;;;;5.80;100.00;97970.09;5055917;28;20157;-87
2022/04/23 03:33:26;;;;;;;25.17;14.00;;;;;;;5.99;100.00;97987.63;5037864;28;20188;-86
2022/04/23 03:35:52;;;;;;;67.03;26.10;;;;;;;8.43;100.00;98418.00;5056343;28;20184;-87
2022/04/23 03:38:17;;;;;;;29.40;15.03;;;;;;;6.19;100.00;98016.03;5056553;28;20166;-87
2022/04/23 03:40:43;;;;;;;23.97;13.27;;;;;;;7.07;100.00;98171.09;5038854;28;20172;-88
2022/04/23 03:43:08;;;;;;;20.37;12.70;;;;;;;6.71;100.00;98084.19;5038163;28;20175;-87
2022/04/23 03:45:36;;;;;;;19.90;12.87;;;;;;;8.17;100.00;98322.88;5047206;28;20190;-86
2022/04/23 03:48:02;;;;;;;22.47;13.17;;;;;;;8.91;100.00;98421.38;5039875;28;20205;-87
2022/04/23 03:50:28;;;;;;;22.20;12.90;;;;;;;8.63;100.00;98350.59;5055103;28;20226;-86
2022/04/23 03:52:56;;;;;;;22.27;13.07;;;;;;;9.18;100.00;98431.53;5042258;28;20175;-87
2022/04/23 03:55:21;;;;;;;21.27;12.63;;;;;;;7.89;100.00;98201.75;5022194;28;20284;-86
2022/04/23 03:57:49;;;;;;;21.33;12.33;;;;;;;8.67;100.00;98312.91;5040043;28;20186;-87
2022/04/23 04:00:15;;;;;;;18.63;11.87;;;;;;;9.58;100.00;98431.19;5042469;28;20158;-87
2022/04/23 04:02:42;;;;;;;18.67;11.87;;;;;;;7.22;100.00;98055.91;5043086;28;20167;-86
2022/04/23 04:05:09;;;;;;;19.63;12.50;;;;;;;7.97;100.00;98132.31;5022404;28;20170;-86
2022/04/23 04:07:34;;;;;;;21.33;12.10;;;;;;;7.81;100.00;98082.25;5024010;28;20229;-87
2022/04/23 04:10:01;;;;;;;18.37;11.73;;;;;;;7.40;100.00;97995.25;5044110;28;20197;-86
2022/04/23 04:12:27;;;;;;;18.97;11.63;;;;;;;8.78;100.00;98238.44;5049696;28;20192;-86
2022/04/23 04:14:53;;;;;;;19.03;11.20;;;;;;;8.68;100.00;98211.19;5042311;28;20589;-87
2022/04/23 04:17:18;;;;;;;15.60;10.20;;;;;;;10.35;100.00;98431.06;5059339;28;20168;-86
2022/04/23 04:19:44;;;;;;;17.17;10.37;;;;;;;8.70;99.77;98100.25;5042449;28;20161;-88
2022/04/23 04:22:10;;;;;;;14.83;9.80;;;;;;;8.09;98.21;97976.50;5041421;28;20215;-87
2022/04/23 04:24:35;;;;;;;17.80;10.10;;;;;;;8.05;96.48;97955.38;5058811;28;20174;-85
2022/04/23 04:27:01;;;;;;;19.17;10.20;;;;;;;9.75;96.24;98223.66;5046774;28;20242;-84
2022/04/23 04:29:27;;;;;;;16.20;10.10;;;;;;;9.62;94.40;98148.34;5062722;28;20638;-86
2022/04/23 04:31:53;;;;;;;19.30;10.43;;;;;;;9.49;92.30;98088.22;5046686;28;20189;-88
2022/04/23 04:34:28;;;;;;;16.30;10.43;;;;;;;11.77;91.17;98432.28;5060734;28;20185;-86
2022/04/23 04:37:08;;;;;;;16.93;10.20;;;;;;;9.62;91.06;98027.06;5039868;28;20170;-87
2022/04/23 04:39:35;;;;;;;18.10;11.10;;;;;;;9.87;90.10;98082.47;5036031;28;20170;-89
2022/04/23 04:42:01;;;;;;;15.97;10.53;;;;;;;12.07;89.82;98411.81;5036016;28;20653;-89
2022/04/23 04:44:26;;;;;;;16.97;10.37;;;;;;;11.12;88.72;98231.41;5036793;28;20162;-89
2022/04/23 04:46:52;;;;;;;16.00;9.80;;;;;;;10.20;87.16;98064.75;5036977;28;20212;-90
2022/04/23 04:49:17;;;;;;;18.17;10.97;;;;;;;10.18;86.77;98041.13;5044539;28;20174;-88
2022/04/23 04:51:43;;;;;;;29.60;14.23;;;;;;;10.42;85.90;98078.75;5026225;28;20217;-89
2022/04/23 04:54:08;;;;;;;22.40;13.40;;;;;;;11.79;85.24;98258.22;5044826;28;20602;-87
2022/04/23 04:56:35;;;;;;;42.07;25.43;;;;;;;12.89;88.05;98458.38;5034379;28;20228;-91
2022/04/23 04:59:04;;;;;;;24.73;14.43;;;;;;;12.66;90.70;98461.31;5018219;28;20173;-88
2022/04/23 05:01:36;;;;;;;24.20;15.10;;;;;;;10.17;92.36;98058.75;5034801;28;20323;-87
2022/04/23 05:04:02;;;;;;;24.17;14.90;;;;;;;9.93;92.26;97991.63;5037010;28;20570;-86
2022/04/23 05:06:28;;;;;;;24.00;13.43;;;;;;;10.90;90.44;98152.41;5040903;28;20192;-88
2022/04/23 05:08:53;;;;;;;18.63;12.17;;;;;;;12.05;89.24;98378.81;5049684;28;20197;-86
2022/04/23 05:11:26;;;;;;;21.63;12.97;;;;;;;9.96;90.97;98032.16;5048561;28;20253;-89
2022/04/23 05:13:52;;;;;;;22.37;13.93;;;;;;;9.47;93.42;97953.44;5006703;28;20198;-88
2022/04/23 05:16:18;;;;;;;22.70;13.23;;;;;;;10.41;93.12;98079.59;4995139;28;20195;-87
2022/04/23 05:18:43;;;;;;;19.07;12.43;;;;;;;9.82;91.08;97967.78;4993409;28;20191;-86
2022/04/23 05:21:09;;;;;;;18.13;10.93;;;;;;;11.53;88.43;98251.72;4976961;28;20566;-86
2022/04/23 05:23:34;;;;;;;16.63;11.43;;;;;;;10.73;88.48;98131.78;4993654;28;20167;-87
2022/04/23 05:26:01;;;;;;;16.17;10.40;;;;;;;10.92;87.86;98166.81;4977549;28;20191;-89
2022/04/23 05:28:34;;;;;;;18.33;11.80;;;;;;;10.18;87.98;98025.94;4998745;28;20642;-87
2022/04/23 05:31:00;;;;;;;18.40;12.07;;;;;;;11.34;88.49;98187.16;4977084;28;20191;-89
2022/04/23 05:33:26;;;;;;;33.97;20.70;;;;;;;11.37;88.17;98179.59;4999317;28;20179;-86
2022/04/23 05:36:22;;;;;;;27.10;17.13;;;;;;;13.59;87.20;98482.59;4995036;28;20171;-92
2022/04/23 05:38:47;;;;;;;20.87;12.57;;;;;;;10.14;86.49;97905.31;4996137;28;20254;-87
2022/04/23 05:41:13;;;;;;;20.40;12.90;;;;;;;11.51;84.55;98084.44;5001891;28;20567;-87
2022/04/23 05:43:38;;;;;;;21.60;10.77;;;;;;;13.60;82.67;98407.97;5019373;28;20178;-87
2022/04/23 05:46:04;;;;;;;26.70;11.67;;;;;;;12.50;83.18;98254.50;4978758;28;20182;-88
2022/04/23 05:48:29;;;;;;;19.97;12.13;;;;;;;14.25;83.50;98490.41;4979855;28;20206;-91
2022/04/23 05:50:55;;;;;;;20.00;11.80;;;;;;;14.21;82.25;98437.72;4991263;28;20688;-89
2022/04/23 05:53:20;;;;;;;20.90;13.03;;;;;;;12.72;78.89;98151.63;5040665;28;20673;-89
2022/04/23 05:55:49;;;;;;;27.00;17.63;;;;;;;13.02;77.13;98167.31;5038485;28;20185;-89
2022/04/23 05:58:15;;;;;;;99.30;57.30;;;;;;;12.17;74.49;98007.81;5039654;28;20185;-88
2022/04/23 06:00:46;;;;;;;162.90;91.70;;;;;;;15.41;74.22;98508.03;5037359;28;20180;-89
2022/04/23 06:03:12;;;;;;;130.73;71.07;;;;;;;13.54;71.74;98133.31;5050362;28;20315;-90
2022/04/23 06:05:39;;;;;;;31.97;20.37;;;;;;;15.35;69.01;98379.59;5037934;28;20671;-87
2022/04/23 06:08:04;;;;;;;94.27;53.00;;;;;;;14.12;67.62;98097.41;5017159;28;20237;-85
2022/04/23 06:10:30;;;;;;;166.30;93.73;;;;;;;15.27;64.98;98222.31;5016190;28;20311;-87
2022/04/23 06:12:55;;;;;;;40.10;23.93;;;;;;;15.17;63.63;98208.63;5033987;28;20169;-87
2022/04/23 06:15:30;;;;;;;24.37;14.83;;;;;;;14.90;64.84;98188.06;5048565;28;20652;-89
2022/04/23 06:17:55;;;;;;;11.00;8.00;;;;;;;13.89;64.12;98017.50;5036338;28;20210;-89
2022/04/23 06:20:21;;;;;;;12.13;7.27;;;;;;;15.05;64.09;98228.09;5036550;28;20611;-88
2022/04/23 06:22:46;;;;;;;20.00;11.43;;;;;;;14.69;65.52;98175.16;5051926;28;20652;-87
2022/04/23 06:25:12;;;;;;;12.17;8.37;;;;;;;13.31;65.07;98000.88;5045359;28;20188;-87
2022/04/23 06:27:37;;;;;;;14.57;9.63;;;;;;;14.30;66.92;98249.47;5018321;28;20202;-87
2022/04/23 06:30:10;;;;;;;19.53;11.60;;;;;;;13.01;67.96;98000.50;5047618;28;20190;-87
2022/04/23 06:32:39;;;;;;;20.67;10.93;;;;;;;12.83;68.71;97949.47;5027812;28;20178;-87
2022/04/23 06:35:08;;;;;;;19.80;12.70;;;;;;;12.76;68.09;97907.09;5042425;28;20178;-88
2022/04/23 06:37:41;;;;;;;20.00;11.57;;;;;;;15.24;67.20;98298.78;5023188;28;20173;-87
2022/04/23 06:40:11;;;;;;;12.17;8.37;;;;;;;13.64;66.85;98045.25;5038484;28;20165;-87
2022/04/23 06:42:55;;;;;;;11.83;8.30;;;;;;;16.39;66.93;98501.19;5050324;28;20170;-87
2022/04/23 06:45:20;;;;;;;21.00;14.07;;;;;;;14.52;67.06;98180.13;5023640;28;20177;-85
2022/04/23 06:47:46;;;;;;;15.77;10.50;;;;;;;13.45;65.39;98040.00;5056589;28;20633;-85
2022/04/23 06:50:14;;;;;;;11.33;8.10;;;;;;;12.31;67.77;97969.13;5060139;28;20161;-85
2022/04/23 06:52:40;;;;;;;12.80;7.60;;;;;;;15.51;69.31;98546.41;5042320;28;20193;-88
2022/04/23 06:55:06;;;;;;;12.70;8.10;;;;;;;13.26;70.13;98136.34;5038385;28;20191;-86
2022/04/23 06:57:31;;;;;;;8.70;7.20;;;;;;;14.20;70.11;98332.50;5045971;28;20645;-84
2022/04/23 07:00:00;;;;;;;11.43;7.60;;;;;;;14.28;70.32;98322.44;5031066;28;20190;-84
2022/04/23 07:02:26;;;;;;;11.33;7.63;;;;;;;15.60;70.23;98515.88;5036494;28;20184;-84
2022/04/23 07:04:52;;;;;;;12.67;7.90;;;;;;;14.26;67.86;98217.19;5037814;28;20182;-84
2022/04/23 07:07:17;;;;;;;13.00;8.10;;;;;;;13.53;68.86;98144.31;5032806;28;20552;-84
2022/04/23 07:09:42;;;;;;;31.33;14.93;;;;;;;14.94;70.36;98410.66;5024485;28;20177;-84
2022/04/23 07:12:09;;;;;;;27.30;13.07;;;;;;;16.07;69.09;98518.84;5056622;28;20158;-84
2022/04/23 07:14:34;;;;;;;16.70;9.50;;;;;;;12.31;70.18;97945.44;5057241;28;20227;-86
2022/04/23 07:17:03;;;;;;;12.20;8.13;;;;;;;14.94;68.14;98321.47;5059002;28;20192;-85
2022/04/23 07:19:30;;;;;;;19.27;12.33;;;;;;;14.04;71.80;98160.13;5043552;28;20546;-86
2022/04/23 07:21:55;;;;;;;20.13;12.33;;;;;;;13.67;74.56;98158.03;5059669;28;20218;-86
2022/04/23 07:24:21;;;;;;;14.47;10.40;;;;;;;13.60;72.78;98055.38;5040968;28;20170;-86
2022/04/23 07:26:47;;;;;;;13.90;8.20;;;;;;;14.11;70.38;98044.84;5052755;28;20170;-86
2022/04/23 07:29:13;;;;;;;13.33;8.10;;;;;;;14.84;67.27;98082.69;5035384;28;20682;-86
2022/04/23 07:31:38;;;;;;;15.23;8.60;;;;;;;16.53;66.86;98331.00;5035688;28;20162;-86
2022/04/23 07:39:34;;;;;;;14.53;8.80;;;;;;;14.97;63.90;97980.81;5036300;28;20192;-84
2022/04/23 07:42:00;;;;;;;14.27;9.27;;;;;;;15.99;64.27;98203.09;5018864;28;20163;-86
2022/04/23 07:44:26;;;;;;;21.50;13.40;;;;;;;15.71;64.02;98197.88;5035728;28;20173;-86
2022/04/23 07:46:51;;;;;;;11.23;8.50;;;;;;;17.12;62.19;98369.44;5042562;28;20195;-85
2022/04/23 07:49:17;;;;;;;12.63;8.37;;;;;;;15.42;60.00;98036.22;5056117;28;20181;-86
2022/04/23 07:51:46;;;;;;;13.63;9.40;;;;;;;17.58;60.39;98357.53;5054405;28;20247;-85
2022/04/23 07:54:12;;;;;;;11.07;8.50;;;;;;;15.19;58.03;97974.94;5055130;28;20264;-85
2022/04/23 07:56:38;;;;;;;11.40;7.77;;;;;;;15.27;57.66;98011.50;5037464;28;20616;-85
2022/04/23 07:59:04;;;;;;;10.87;7.83;;;;;;;16.55;58.79;98257.75;5032009;28;20223;-84
2022/04/23 08:01:29;;;;;;;10.87;6.73;;;;;;;16.08;55.36;98127.38;5046006;28;20614;-86
2022/04/23 08:03:54;;;;;;;16.70;7.57;;;;;;;16.32;55.60;98119.72;5046265;28;20170;-86
2022/04/23 08:06:20;;;;;;;11.27;8.03;;;;;;;16.48;55.71;98138.50;5018555;28;20535;-85
2022/04/23 08:08:45;;;;;;;11.27;7.87;;;;;;;16.91;56.43;98218.56;5042767;28;20190;-87
2022/04/23 08:11:11;;;;;;;14.90;9.23;;;;;;;17.85;56.42;98354.94;5047031;28;20197;-86
2022/04/23 08:13:37;;;;;;;9.30;7.27;;;;;;;15.82;58.68;98210.72;5029474;28;20628;-85
2022/04/23 08:16:03;;;;;;;20.47;12.80;;;;;;;17.81;57.98;98450.53;5047480;28;20169;-85
2022/04/23 08:18:29;;;;;;;20.80;14.07;;;;;;;18.36;59.29;98524.75;5031448;28;20176;-85
2022/04/23 08:20:55;;;;;;;12.20;8.80;;;;;;;17.29;59.10;98334.50;5027573;28;20174;-86
2022/04/23 08:23:21;;;;;;;12.37;7.63;;;;;;;18.88;56.73;98536.63;4999478;28;20236;-86
2022/04/23 08:25:47;;;;;;;11.63;7.47;;;;;;;17.65;58.11;98356.69;5042323;28;20242;-86
2022/04/23 08:30:57;;;;;;;10.03;7.47;;;;;;;18.96;55.49;98498.13;5042697;28;20185;-86
2022/04/23 08:33:23;;;;;;;10.33;7.20;;;;;;;20.05;53.48;98547.16;5024646;28;20182;-85
2022/04/23 08:35:50;;;;;;;13.93;7.90;;;;;;;18.69;55.65;98425.59;5038372;28;20247;-86
2022/04/23 08:38:16;;;;;;;12.73;7.93;;;;;;;20.00;53.40;98538.59;5050188;28;20182;-84
2022/04/23 08:40:45;;;;;;;12.77;8.17;;;;;;;19.12;55.40;98482.66;5047573;28;20181;-83
2022/04/23 08:43:11;;;;;;;10.30;7.93;;;;;;;18.09;54.29;98324.16;5041134;28;20243;-85
2022/04/23 08:45:37;;;;;;;8.83;6.97;;;;;;;19.04;52.87;98397.19;5034219;28;20327;-84
2022/04/23 08:48:14;;;;;;;11.63;7.73;;;;;;;19.22;51.36;98329.50;5030000;28;20300;-84
2022/04/23 08:50:42;;;;;;;9.77;7.30;;;;;;;20.51;51.46;98506.50;5052427;28;20208;-85
2022/04/23 08:53:18;;;;;;;11.10;7.07;;;;;;;19.10;52.30;98361.25;5036278;28;20181;-86
2022/04/23 08:55:46;;;;;;;9.87;7.00;;;;;;;18.55;54.83;98434.19;5043825;28;20263;-84
2022/04/23 08:58:17;;;;;;;9.20;7.03;;;;;;;19.57;53.12;98465.31;5024897;28;20185;-85
2022/04/23 09:00:42;;;;;;;10.17;7.00;;;;;;;20.22;52.66;98519.59;5029448;28;20211;-85
2022/04/23 09:03:20;;;;;;;8.80;6.60;;;;;;;20.26;51.46;98500.75;5043439;28;20654;-86
2022/04/23 09:05:50;;;;;;;10.27;7.33;;;;;;;19.76;53.24;98513.09;5044041;28;20177;-85
2022/04/23 09:08:16;;;;;;;13.67;8.50;;;;;;;18.40;52.77;98278.75;5033162;28;20577;-85
2022/04/23 09:10:56;;;;;;;10.33;6.17;;;;;;;19.39;51.63;98414.97;5015948;28;20257;-86
2022/04/23 09:13:29;;;;;;;10.23;7.17;;;;;;;18.69;50.89;98281.16;5018943;28;20206;-84
2022/04/23 09:24:48;;;;;;;9.67;6.67;;;;;;;20.65;50.21;98504.63;5042777;28;20209;-86
2022/04/23 09:27:15;;;;;;;7.60;6.17;;;;;;;21.02;49.55;98494.75;5032005;28;20174;-84
2022/04/23 09:29:42;;;;;;;8.43;6.30;;;;;;;19.85;48.79;98326.41;5033636;28;20221;-84
2022/04/23 09:32:14;;;;;;;8.57;5.77;;;;;;;20.27;48.28;98403.94;5020034;28;20177;-84
2022/04/23 09:34:39;;;;;;;10.63;6.70;;;;;;;20.83;48.42;98380.06;5048380;28;20630;-86
2022/04/23 09:37:05;;;;;;;7.83;5.93;;;;;;;20.48;48.89;98345.38;5031857;28;20185;-85
2022/04/23 09:39:35;;;;;;;9.77;6.30;;;;;;;21.57;48.15;98462.25;5039501;28;20197;-84
2022/04/23 09:42:11;;;;;;;8.53;5.53;;;;;;;21.51;47.32;98430.56;5031240;28;20189;-84
2022/04/23 09:44:37;;;;;;;10.63;5.60;;;;;;;22.35;45.93;98461.84;5036748;28;20212;-84
2022/04/23 09:47:02;;;;;;;8.63;5.60;;;;;;;21.00;46.47;98393.56;5040759;28;20272;-86
2022/04/23 09:49:28;;;;;;;8.17;5.70;;;;;;;18.98;46.56;98135.59;5045192;28;20185;-84
2022/04/23 09:52:03;;;;;;;9.03;5.27;;;;;;;18.82;44.99;98052.00;5024522;28;20278;-85
2022/04/23 09:54:33;;;;;;;10.87;5.63;;;;;;;19.86;44.84;98137.19;5035880;28;20550;-84
2022/04/23 09:57:00;;;;;;;8.93;4.97;;;;;;;21.89;44.95;98435.16;5044229;28;20684;-85
2022/04/23 09:59:26;;;;;;;8.63;5.30;;;;;;;21.66;43.86;98310.13;5038355;28;20976;-87
2022/04/23 10:01:56;;;;;;;7.67;5.30;;;;;;;22.13;42.96;98321.28;5045535;28;20197;-86
2022/04/23 10:04:36;;;;;;;6.93;4.87;;;;;;;21.28;45.46;98400.03;5051068;28;20189;-86
2022/04/23 10:07:09;;;;;;;7.83;4.70;;;;;;;20.45;45.54;98318.84;5051884;28;20705;-85
2022/04/23 10:09:39;;;;;;;9.43;4.70;;;;;;;21.60;44.08;98387.50;5051816;28;20236;-86
2022/04/23 10:12:09;;;;;;;9.97;7.47;;;;;;;22.30;43.04;98387.09;5033310;28;20188;-87
2022/04/23 10:14:59;;;;;;;7.67;4.50;;;;;;;22.87;43.28;98466.88;5036716;28;20815;-87
2022/04/23 10:17:25;;;;;;;10.20;5.10;;;;;;;21.55;42.53;98175.53;4995563;28;20331;-86
2022/04/23 10:19:52;;;;;;;8.63;6.53;;;;;;;23.09;40.75;98472.44;5009737;28;20389;-86
2022/04/23 10:22:32;;;;;;;9.53;4.70;;;;;;;21.53;40.28;98174.72;4975296;28;20190;-85
2022/04/23 10:25:09;;;;;;;11.50;4.17;;;;;;;23.52;40.09;98462.88;5014975;28;20725;-87
2022/04/23 10:27:35;;;;;;;7.67;4.53;;;;;;;23.59;40.49;98464.44;5014397;28;20209;-86
2022/04/23 10:30:04;;;;;;;9.83;5.80;;;;;;;23.25;40.40;98437.63;5014273;28;20179;-86
2022/04/23 10:32:39;;;;;;;11.17;5.10;;;;;;;21.75;40.30;98204.31;5001425;28;20186;-87
2022/04/23 10:35:27;;;;;;;11.27;4.50;;;;;;;22.66;39.76;98312.47;4997969;28;20704;-88
2022/04/23 10:37:56;;;;;;;9.27;3.90;;;;;;;23.21;39.32;98425.69;4956842;29;20200;-88
2022/04/23 10:40:25;;;;;;;8.00;4.30;;;;;;;20.42;39.92;97962.41;4957719;28;20268;-87
2022/04/23 10:43:12;;;;;;;7.33;4.00;;;;;;;22.67;39.17;98262.56;4956931;29;20699;-86
2022/04/23 10:45:40;;;;;;;11.70;5.87;;;;;;;20.89;39.82;97984.63;4956394;29;20192;-87
2022/04/23 10:48:24;;;;;;;9.33;4.47;;;;;;;23.59;38.30;98453.25;4957147;28;20224;-87
2022/04/23 10:51:20;;;;;;;13.50;5.63;;;;;;;23.54;38.75;98445.59;4957507;28;20228;-87
2022/04/23 10:53:49;;;;;;;14.53;5.77;;;;;;;23.74;38.94;98438.22;4960473;28;20392;-84
2022/04/23 10:56:38;;;;;;;12.23;5.63;;;;;;;24.11;38.74;98443.34;4975296;28;20200;-86
2022/04/23 10:59:04;;;;;;;9.43;5.20;;;;;;;23.95;38.83;98429.91;4952697;29;20192;-86
2022/04/23 11:01:30;;;;;;;12.73;5.90;;;;;;;22.33;39.41;98154.13;4957552;28;20279;-85
2022/04/23 11:03:59;;;;;;;8.40;4.17;;;;;;;23.23;39.70;98439.41;4957303;29;20200;-86
2022/04/23 11:12:30;;;;;;;10.70;4.17;;;;;;;21.08;39.06;97964.53;4972374;28;20695;-86
2022/04/23 11:15:15;;;;;;;10.30;4.60;;;;;;;23.54;38.74;98442.19;5006381;28;20193;-86
2022/04/23 11:17:53;;;;;;;9.00;3.90;;;;;;;22.62;39.57;98303.06;5045765;28;20791;-86
2022/04/23 11:20:30;;;;;;;7.50;3.50;;;;;;;23.90;39.49;98429.19;5027486;28;20257;-86
2022/04/23 11:22:59;;;;;;;11.63;3.77;;;;;;;24.30;38.70;98423.03;5036507;28;20224;-86
2022/04/23 11:25:24;;;;;;;9.97;3.80;;;;;;;24.21;38.28;98384.47;5059229;28;20177;-90
2022/04/23 11:27:50;;;;;;;10.90;3.37;;;;;;;23.79;35.75;98379.50;5059521;28;20207;-86
2022/04/23 11:30:26;;;;;;;8.00;3.00;;;;;;;24.14;35.23;98427.75;5035099;28;20268;-86
2022/04/23 11:32:52;;;;;;;10.13;3.30;;;;;;;23.64;34.84;98322.19;5036896;28;20209;-86
2022/04/23 11:35:28;;;;;;;12.00;4.33;;;;;;;24.91;34.12;98378.16;5055762;28;21301;-87
2022/04/23 11:37:53;;;;;;;16.83;5.63;;;;;;;24.86;33.20;98289.41;5058002;28;20182;-85
2022/04/23 11:40:23;;;;;;;15.70;5.10;;;;;;;25.04;32.81;98357.03;5055240;28;20191;-85
2022/04/23 11:42:49;;;;;;;10.95;3.60;;;;;;;25.89;31.60;98364.63;5034885;28;20251;-85
2022/04/23 11:45:16;;;;;;;13.32;3.78;;;;;;;26.08;30.83;98277.47;5049240;28;20544;-86
2022/04/23 11:47:42;;;;;;;13.98;3.35;;;;;;;27.70;29.92;98403.69;5041945;28;20193;-86